Time;durP1;ratioP1;P1;durP2;ratioP2;P2;SDS_P1;SDS_P2;PMS_P1;PMS_P2;Temp;Humidity;BMP_temperature;BMP_pressure;BME280_temperature;BME280_humidity;BME280_pressure;Samples;Min_cycle;Max_cycle;Signal;HPM_P1;HPM_P2
2022/04/25 00:01:40;;;;;;;3.30;2.50;;;9.80;87.10;;;;;;6179493;23;20856;-77
2022/04/25 00:04:09;;;;;;;2.70;2.28;;;9.80;87.20;;;;;;6180113;23;20902;-79
2022/04/25 00:06:36;;;;;;;4.00;2.35;;;9.70;87.70;;;;;;6181313;23;20372;-79
2022/04/25 00:09:03;;;;;;;4.18;2.50;;;9.70;87.40;;;;;;6179731;23;20373;-78
2022/04/25 00:11:30;;;;;;;3.63;2.80;;;9.70;87.60;;;;;;6182927;23;20376;-80
2022/04/25 00:13:57;;;;;;;3.63;2.47;;;9.70;87.50;;;;;;6181175;23;20753;-78
2022/04/25 00:16:24;;;;;;;3.38;2.63;;;9.70;87.60;;;;;;6173704;23;20760;-79
2022/04/25 00:18:51;;;;;;;4.25;2.80;;;9.70;87.70;;;;;;6159788;23;20382;-78
2022/04/25 00:21:18;;;;;;;3.88;2.10;;;9.80;87.50;;;;;;6178782;23;20380;-79
2022/04/25 00:23:45;;;;;;;4.55;2.20;;;9.80;87.10;;;;;;6136451;23;20428;-79
2022/04/25 00:26:11;;;;;;;5.18;2.10;;;9.90;86.50;;;;;;6170055;23;20737;-78
2022/04/25 00:28:38;;;;;;;4.33;1.90;;;10.00;86.20;;;;;;6182320;23;20399;-78
2022/04/25 00:31:05;;;;;;;6.23;2.33;;;10.00;85.80;;;;;;6165120;23;20713;-79
2022/04/25 00:33:32;;;;;;;3.50;1.52;;;10.10;85.70;;;;;;6166008;23;20764;-78
2022/04/25 00:36:00;;;;;;;3.67;1.90;;;10.10;85.50;;;;;;6181183;23;20380;-80
2022/04/25 00:38:27;;;;;;;3.58;1.63;;;10.10;85.00;;;;;;6184884;23;20471;-79
2022/04/25 00:40:54;;;;;;;4.95;1.60;;;10.20;84.40;;;;;;6182430;23;20384;-78
2022/04/25 00:43:21;;;;;;;3.65;1.75;;;10.30;83.90;;;;;;6169933;23;20368;-77
2022/04/25 00:45:51;;;;;;;3.27;1.77;;;10.30;83.50;;;;;;6183789;23;20414;-79
2022/04/25 00:48:18;;;;;;;4.78;1.75;;;10.40;83.40;;;;;;6181493;23;20418;-80
2022/04/25 00:50:48;;;;;;;2.92;1.30;;;10.40;83.30;;;;;;6183481;23;20887;-78
2022/04/25 00:53:18;;;;;;;2.85;1.65;;;10.40;83.10;;;;;;6183096;23;20380;-79
2022/04/25 00:55:45;;;;;;;4.50;1.55;;;10.40;82.90;;;;;;6127216;23;20381;-77
2022/04/25 00:58:13;;;;;;;3.55;1.65;;;10.40;82.70;;;;;;6177962;23;20769;-79
2022/04/25 01:00:41;;;;;;;4.60;1.40;;;10.40;82.40;;;;;;6184067;23;20395;-79
2022/04/25 01:03:08;;;;;;;2.75;1.23;;;10.40;82.20;;;;;;6183153;23;20475;-78
2022/04/25 01:05:35;;;;;;;3.20;1.23;;;10.50;81.40;;;;;;6166296;23;20424;-79
2022/04/25 01:08:02;;;;;;;2.00;1.00;;;10.50;80.70;;;;;;6203562;23;20852;-79
2022/04/25 01:10:29;;;;;;;2.65;1.15;;;10.50;80.50;;;;;;6180799;23;20411;-78
2022/04/25 01:12:56;;;;;;;3.08;1.17;;;10.50;80.80;;;;;;6182028;23;20760;-78
2022/04/25 01:15:23;;;;;;;4.00;1.25;;;10.40;80.90;;;;;;6180560;23;20482;-79
2022/04/25 01:17:50;;;;;;;4.15;1.50;;;10.40;80.60;;;;;;6181400;23;20381;-80
2022/04/25 01:20:17;;;;;;;2.72;1.10;;;10.40;80.70;;;;;;6182771;23;20387;-79
2022/04/25 01:28:36;;;;;;;2.47;0.90;;;10.30;80.50;;;;;;6182195;23;20384;-79
2022/04/25 01:31:03;;;;;;;1.80;1.23;;;10.30;80.80;;;;;;6183359;23;20361;-79
2022/04/25 01:33:31;;;;;;;2.00;1.10;;;10.30;80.80;;;;;;6182733;23;20753;-80
2022/04/25 01:35:58;;;;;;;3.07;0.90;;;10.30;80.30;;;;;;6180849;23;20472;-80
2022/04/25 01:38:25;;;;;;;2.30;0.90;;;10.40;79.60;;;;;;6183094;23;20380;-79
2022/04/25 01:40:52;;;;;;;2.95;1.17;;;10.40;79.60;;;;;;6182101;23;20387;-79
2022/04/25 01:43:19;;;;;;;3.95;1.60;;;10.40;80.60;;;;;;6185415;23;20380;-80
2022/04/25 01:45:45;;;;;;;3.60;1.50;;;10.20;83.50;;;;;;6184246;23;20380;-78
2022/04/25 01:48:12;;;;;;;2.00;1.17;;;10.00;83.60;;;;;;6182034;23;20372;-78
2022/04/25 01:50:39;;;;;;;2.42;1.15;;;10.00;83.40;;;;;;6187608;23;20380;-79
2022/04/25 01:53:06;;;;;;;3.22;1.40;;;10.10;82.90;;;;;;6180819;23;20411;-78
2022/04/25 01:55:33;;;;;;;3.40;1.77;;;10.10;82.50;;;;;;6180548;23;20989;-78
2022/04/25 01:58:00;;;;;;;3.03;1.90;;;10.10;83.30;;;;;;6181562;23;20380;-79
2022/04/25 02:00:27;;;;;;;2.47;1.80;;;10.00;83.50;;;;;;6181231;23;20713;-77
2022/04/25 02:02:54;;;;;;;4.13;1.90;;;10.00;83.40;;;;;;6180139;23;20916;-78
2022/04/25 02:05:21;;;;;;;4.57;2.00;;;10.00;83.60;;;;;;6182402;23;20369;-79
2022/04/25 02:07:48;;;;;;;4.38;2.03;;;10.00;83.90;;;;;;6160282;23;20419;-79
2022/04/25 02:10:14;;;;;;;4.07;2.30;;;10.00;84.10;;;;;;6202645;23;20865;-78
2022/04/25 02:12:45;;;;;;;4.18;2.08;;;9.90;84.20;;;;;;6181934;23;20423;-80
2022/04/25 02:15:13;;;;;;;3.35;2.67;;;9.90;85.10;;;;;;6180556;23;20376;-77
2022/04/25 02:17:41;;;;;;;3.25;2.80;;;9.60;87.10;;;;;;6184141;23;20376;-80
2022/04/25 02:20:10;;;;;;;3.85;2.75;;;9.50;87.80;;;;;;6157407;23;20995;-80
2022/04/25 02:22:39;;;;;;;3.20;2.47;;;9.40;88.40;;;;;;6172470;23;20378;-78
2022/04/25 02:25:07;;;;;;;4.05;2.40;;;9.40;87.60;;;;;;6193337;23;20698;-78
2022/04/25 02:27:34;;;;;;;2.95;2.58;;;9.50;87.00;;;;;;6181206;23;20876;-78
2022/04/25 02:30:01;;;;;;;4.50;2.25;;;9.50;86.10;;;;;;6180462;23;20456;-80
2022/04/25 02:32:28;;;;;;;2.95;2.10;;;9.50;85.60;;;;;;6180694;23;20423;-78
2022/04/25 02:34:55;;;;;;;3.35;2.38;;;9.40;85.30;;;;;;6180412;23;20910;-77
2022/04/25 02:37:23;;;;;;;3.67;2.03;;;9.40;85.10;;;;;;6180676;23;20852;-78
2022/04/25 02:39:50;;;;;;;5.28;2.35;;;9.40;84.60;;;;;;6168631;23;20386;-77
2022/04/25 02:42:17;;;;;;;4.28;3.28;;;9.40;85.20;;;;;;6182070;23;20841;-80
2022/04/25 02:44:44;;;;;;;4.85;2.88;;;9.30;86.00;;;;;;6181290;23;20762;-79
2022/04/25 02:47:16;;;;;;;4.10;3.20;;;9.30;85.90;;;;;;6182129;23;20376;-79
2022/04/25 02:49:46;;;;;;;4.10;3.20;;;9.10;88.00;;;;;;6180823;23;20377;-78
2022/04/25 02:52:13;;;;;;;3.63;3.03;;;9.00;88.20;;;;;;6182608;23;20369;-79
2022/04/25 02:54:41;;;;;;;5.40;3.90;;;9.00;88.00;;;;;;6181266;23;20384;-79
2022/04/25 02:57:10;;;;;;;5.03;3.10;;;8.90;88.00;;;;;;6182421;23;20914;-77
2022/04/25 02:59:37;;;;;;;3.70;3.00;;;8.90;87.80;;;;;;6179304;23;20430;-79
2022/04/25 03:02:04;;;;;;;3.40;3.10;;;8.90;87.20;;;;;;6177097;23;20455;-79
2022/04/25 03:04:34;;;;;;;4.60;3.42;;;8.90;87.40;;;;;;6180398;23;20376;-79
2022/04/25 03:07:05;;;;;;;4.82;3.08;;;8.90;88.10;;;;;;6180438;23;20829;-79
2022/04/25 03:09:33;;;;;;;3.75;3.00;;;8.90;87.80;;;;;;6181660;23;20379;-79
2022/04/25 03:12:03;;;;;;;5.05;3.42;;;8.80;88.80;;;;;;6180123;23;20435;-77
2022/04/25 03:14:30;;;;;;;3.80;2.95;;;8.70;90.20;;;;;;6159162;23;20471;-77
2022/04/25 03:16:58;;;;;;;3.47;2.97;;;8.60;90.00;;;;;;6190808;23;20408;-77
2022/04/25 03:19:26;;;;;;;3.95;3.15;;;8.60;89.30;;;;;;6193507;23;21084;-79
2022/04/25 03:21:53;;;;;;;5.78;3.20;;;8.50;90.10;;;;;;6179465;23;20390;-77
2022/04/25 03:24:20;;;;;;;4.85;3.42;;;8.50;89.90;;;;;;6179643;23;20431;-78
2022/04/25 03:26:47;;;;;;;4.18;3.15;;;8.40;89.90;;;;;;6180611;23;20911;-79
2022/04/25 03:29:13;;;;;;;4.50;3.05;;;8.40;90.30;;;;;;6182411;23;20451;-78
2022/04/25 03:31:40;;;;;;;3.63;3.22;;;8.40;90.10;;;;;;6180952;23;20384;-80
2022/04/25 03:34:07;;;;;;;4.68;3.63;;;8.40;90.10;;;;;;6180173;23;20388;-78
2022/04/25 03:36:34;;;;;;;4.40;3.03;;;8.30;90.30;;;;;;6181159;23;20434;-79
2022/04/25 03:39:01;;;;;;;3.33;2.88;;;8.30;90.00;;;;;;6181856;23;20439;-78
2022/04/25 03:41:31;;;;;;;3.53;3.10;;;8.30;89.90;;;;;;6182097;23;20376;-79
2022/04/25 03:43:58;;;;;;;3.72;3.35;;;8.30;89.70;;;;;;6178292;23;20400;-81
2022/04/25 03:46:27;;;;;;;3.38;3.08;;;8.30;89.40;;;;;;6182269;23;20752;-80
2022/04/25 03:48:54;;;;;;;4.70;2.97;;;8.40;89.90;;;;;;6180713;23;20454;-77
2022/04/25 03:51:22;;;;;;;3.97;2.40;;;8.30;89.70;;;;;;6179730;23;20368;-79
2022/04/25 03:53:49;;;;;;;2.28;2.10;;;8.30;89.50;;;;;;6180425;23;20868;-80
2022/04/25 03:59:02;;;;;;;2.67;2.30;;;8.20;89.60;;;;;;6180650;23;20408;-78
2022/04/25 04:01:31;;;;;;;3.22;2.92;;;8.20;90.10;;;;;;6179089;23;20393;-77
2022/04/25 04:04:04;;;;;;;4.50;3.10;;;8.10;90.30;;;;;;6162466;23;20400;-79
2022/04/25 04:06:33;;;;;;;3.30;3.00;;;8.10;90.40;;;;;;6182748;23;20430;-78
2022/04/25 04:09:44;;;;;;;3.17;2.83;;;8.10;90.70;;;;;;6184159;23;20376;-77
2022/04/25 04:11:47;;;;;;;4.15;2.90;;;8.10;90.60;;;;;;6185234;23;20740;-80
2022/04/25 04:14:14;;;;;;;2.67;2.35;;;8.10;90.50;;;;;;6180525;23;20384;-79
2022/04/25 04:16:42;;;;;;;3.25;2.78;;;8.10;90.30;;;;;;6183565;23;20832;-78
2022/04/25 04:19:10;;;;;;;3.67;2.55;;;8.10;90.10;;;;;;6183341;23;20610;-78
2022/04/25 04:21:36;;;;;;;4.72;2.60;;;8.00;90.30;;;;;;6185315;23;20898;-80
2022/04/25 04:24:04;;;;;;;3.57;2.50;;;8.00;90.60;;;;;;6184736;23;20380;-78
2022/04/25 04:26:30;;;;;;;4.05;2.78;;;7.90;91.00;;;;;;6183225;23;20384;-79
2022/04/25 04:28:57;;;;;;;4.30;2.45;;;7.90;90.80;;;;;;6182107;23;20686;-77
2022/04/25 04:31:24;;;;;;;3.83;2.70;;;7.90;90.80;;;;;;6181326;23;20384;-78
2022/04/25 04:33:51;;;;;;;5.07;2.63;;;8.00;90.50;;;;;;6176683;23;20841;-77
2022/04/25 04:36:18;;;;;;;2.30;2.00;;;8.10;90.50;;;;;;6183135;23;20426;-79
2022/04/25 04:38:46;;;;;;;3.53;2.33;;;8.10;90.30;;;;;;6182443;23;20442;-79
2022/04/25 04:41:13;;;;;;;3.53;2.38;;;8.00;90.30;;;;;;6178104;23;20380;-77
2022/04/25 04:43:40;;;;;;;3.75;2.55;;;8.00;90.30;;;;;;6166486;23;20378;-79
2022/04/25 04:46:07;;;;;;;3.08;2.50;;;7.90;90.70;;;;;;6207889;23;20427;-79
2022/04/25 04:48:35;;;;;;;4.05;2.88;;;7.90;90.60;;;;;;6183069;23;20376;-80
2022/04/25 04:51:02;;;;;;;5.43;4.90;;;7.90;91.20;;;;;;6183099;23;20439;-78
2022/04/25 04:53:29;;;;;;;4.95;4.60;;;7.80;91.90;;;;;;6181532;23;20464;-79
2022/04/25 04:56:02;;;;;;;5.23;3.90;;;7.80;91.90;;;;;;6184114;23;20841;-77
2022/04/25 04:58:28;;;;;;;4.25;3.20;;;7.80;92.00;;;;;;6181556;23;20380;-79
2022/04/25 05:00:55;;;;;;;2.83;2.38;;;7.90;92.10;;;;;;6181129;23;20928;-78
2022/04/25 05:03:25;;;;;;;2.60;2.30;;;7.90;92.00;;;;;;6181447;23;20388;-79
2022/04/25 05:05:53;;;;;;;2.83;2.53;;;8.00;91.70;;;;;;6179294;23;20852;-79
2022/04/25 05:08:20;;;;;;;2.90;2.30;;;8.10;91.50;;;;;;6182031;23;20742;-79
2022/04/25 05:10:48;;;;;;;2.35;2.03;;;8.20;91.40;;;;;;6181840;23;20385;-80
2022/04/25 05:13:15;;;;;;;2.30;2.10;;;8.30;91.00;;;;;;6181125;23;20384;-78
2022/04/25 05:15:42;;;;;;;2.35;1.90;;;8.30;90.80;;;;;;6180813;23;20911;-80
2022/04/25 05:18:09;;;;;;;2.25;2.05;;;8.40;90.60;;;;;;6180959;23;20407;-79
2022/04/25 05:20:36;;;;;;;3.97;2.30;;;8.40;90.50;;;;;;6181371;23;20430;-80
2022/04/25 05:23:03;;;;;;;3.75;2.30;;;8.30;90.60;;;;;;6181763;23;20753;-78
2022/04/25 05:25:31;;;;;;;2.78;2.33;;;8.30;90.70;;;;;;6182141;23;20376;-78
2022/04/25 05:27:58;;;;;;;2.67;2.47;;;8.30;91.00;;;;;;6181766;23;20372;-80
2022/04/25 05:30:26;;;;;;;2.30;2.08;;;8.30;90.90;;;;;;6181262;23;20415;-79
2022/04/25 05:32:55;;;;;;;2.28;2.08;;;8.40;90.70;;;;;;6180417;23;20375;-79
2022/04/25 05:35:27;;;;;;;2.97;2.53;;;8.40;90.30;;;;;;6170796;23;20380;-80
2022/04/25 05:37:55;;;;;;;3.30;2.17;;;8.40;90.30;;;;;;6131141;23;20439;-80
2022/04/25 05:40:23;;;;;;;3.72;2.50;;;8.40;90.60;;;;;;6182470;23;20372;-77
2022/04/25 05:42:51;;;;;;;2.30;2.08;;;8.50;90.50;;;;;;6180632;23;20381;-78
2022/04/25 05:45:23;;;;;;;7.97;5.47;;;8.50;90.40;;;;;;6183098;23;20419;-79
2022/04/25 05:47:55;;;;;;;4.78;2.78;;;8.50;90.30;;;;;;6132024;23;20853;-79
2022/04/25 05:53:12;;;;;;;3.20;2.15;;;8.60;90.40;;;;;;6181738;23;20364;-80
2022/04/25 05:55:44;;;;;;;2.53;1.90;;;8.60;90.30;;;;;;6157288;23;20401;-78
2022/04/25 05:58:11;;;;;;;3.60;2.55;;;8.60;90.20;;;;;;6180017;23;20365;-80
2022/04/25 06:00:38;;;;;;;3.50;2.42;;;8.60;90.30;;;;;;6180747;23;20376;-81
2022/04/25 06:03:05;;;;;;;3.23;2.40;;;8.60;90.90;;;;;;6180560;23;20380;-80
2022/04/25 06:05:32;;;;;;;2.72;2.40;;;8.70;90.90;;;;;;6181214;23;20694;-80
2022/04/25 06:07:59;;;;;;;4.32;2.10;;;8.70;90.80;;;;;;6178912;23;20395;-77
2022/04/25 06:10:25;;;;;;;3.47;2.15;;;8.70;90.60;;;;;;6182428;23;20426;-79
2022/04/25 06:12:54;;;;;;;2.07;1.87;;;8.80;90.40;;;;;;6181835;23;20517;-78
2022/04/25 06:15:26;;;;;;;4.30;2.60;;;8.90;90.20;;;;;;6178293;23;21444;-80
2022/04/25 06:17:55;;;;;;;2.95;2.50;;;8.90;90.00;;;;;;6181195;23;20451;-81
2022/04/25 06:20:23;;;;;;;2.45;2.25;;;9.00;89.80;;;;;;6180411;23;21225;-79
2022/04/25 06:22:55;;;;;;;2.97;2.22;;;9.10;90.00;;;;;;6182328;23;20385;-79
2022/04/25 06:25:24;;;;;;;2.70;2.10;;;9.20;89.80;;;;;;6179709;23;20372;-78
2022/04/25 06:27:57;;;;;;;3.45;2.13;;;9.20;89.30;;;;;;6182031;23;20430;-80
2022/04/25 06:30:26;;;;;;;3.10;2.10;;;9.30;89.20;;;;;;6179147;23;20683;-80
2022/04/25 06:32:53;;;;;;;2.33;2.15;;;9.30;89.20;;;;;;6181243;23;20380;-79
2022/04/25 06:35:20;;;;;;;2.70;2.42;;;9.40;88.90;;;;;;6179763;23;20385;-77
2022/04/25 06:37:48;;;;;;;3.08;2.15;;;9.50;88.60;;;;;;6182388;23;20915;-78
2022/04/25 06:40:16;;;;;;;5.10;2.45;;;9.60;88.80;;;;;;6180363;23;20379;-78
2022/04/25 06:42:43;;;;;;;3.58;2.30;;;9.90;87.60;;;;;;6177348;23;20442;-77
2022/04/25 06:45:10;;;;;;;2.90;2.70;;;10.10;86.00;;;;;;6180557;23;20395;-79
2022/04/25 06:47:37;;;;;;;3.07;2.67;;;10.30;86.00;;;;;;6180387;23;20460;-79
2022/04/25 06:50:04;;;;;;;4.43;2.22;;;10.50;84.60;;;;;;6180257;23;20745;-79
2022/04/25 06:52:31;;;;;;;3.75;1.73;;;10.70;85.10;;;;;;6180042;23;20431;-81
2022/04/25 06:54:58;;;;;;;2.97;1.73;;;10.80;83.60;;;;;;6180104;23;20853;-81
2022/04/25 06:57:25;;;;;;;3.03;1.88;;;10.90;82.50;;;;;;6179991;23;20472;-81
2022/04/25 06:59:52;;;;;;;3.15;2.00;;;11.10;80.50;;;;;;6181131;23;20427;-78
2022/04/25 07:02:33;;;;;;;2.67;1.60;;;11.10;81.50;;;;;;6180871;23;20397;-81
2022/04/25 07:05:00;;;;;;;2.50;1.70;;;11.20;80.30;;;;;;6183647;23;20772;-80
2022/04/25 07:07:28;;;;;;;4.47;2.03;;;11.20;80.10;;;;;;6181180;23;20395;-79
2022/04/25 07:09:54;;;;;;;3.58;2.20;;;11.30;80.80;;;;;;6180548;23;20376;-81
2022/04/25 07:12:21;;;;;;;2.60;1.88;;;11.40;80.20;;;;;;6180656;23;20376;-79
2022/04/25 07:14:49;;;;;;;2.50;1.57;;;11.50;79.20;;;;;;6180604;23;20495;-78
2022/04/25 07:17:16;;;;;;;3.70;2.10;;;11.60;78.50;;;;;;6179607;23;20705;-78
2022/04/25 07:19:43;;;;;;;3.43;2.30;;;11.80;76.20;;;;;;6181032;23;20381;-81
2022/04/25 07:30:30;;;;;;;3.53;1.90;;;12.30;75.50;;;;;;6181217;23;20381;-81
2022/04/25 07:33:03;;;;;;;2.83;1.85;;;12.40;73.80;;;;;;6181503;23;20380;-78
2022/04/25 07:35:30;;;;;;;3.63;2.35;;;12.40;74.50;;;;;;6179913;23;20376;-81
2022/04/25 07:37:57;;;;;;;3.45;2.30;;;12.80;75.20;;;;;;6181015;23;20376;-78
2022/04/25 07:40:24;;;;;;;3.60;2.20;;;13.10;75.60;;;;;;6178555;23;20380;-81
2022/04/25 07:42:54;;;;;;;3.13;2.10;;;13.40;73.50;;;;;;6179784;23;20368;-78
2022/04/25 07:45:21;;;;;;;3.90;2.17;;;13.60;73.50;;;;;;6179943;23;20381;-78
2022/04/25 07:47:48;;;;;;;3.37;1.80;;;13.70;71.30;;;;;;6179731;23;20376;-79
2022/04/25 07:50:22;;;;;;;2.38;1.90;;;13.80;72.30;;;;;;6182741;23;20392;-81
2022/04/25 07:52:52;;;;;;;3.80;1.88;;;13.90;70.80;;;;;;6179412;23;20380;-78
2022/04/25 07:55:19;;;;;;;2.40;1.88;;;13.80;71.80;;;;;;6180402;23;20405;-79
2022/04/25 07:57:46;;;;;;;3.80;1.92;;;13.80;71.00;;;;;;6180219;23;20360;-78
2022/04/25 08:00:14;;;;;;;3.20;1.63;;;13.80;70.10;;;;;;6180786;23;20388;-79
2022/04/25 08:02:41;;;;;;;3.72;1.70;;;13.70;69.70;;;;;;6179677;23;20450;-80
2022/04/25 08:05:08;;;;;;;3.45;1.65;;;13.70;70.40;;;;;;6181072;23;20383;-78
2022/04/25 08:07:36;;;;;;;4.25;1.92;;;13.90;70.80;;;;;;6179792;23;20860;-79
2022/04/25 08:10:04;;;;;;;2.47;1.77;;;14.00;71.30;;;;;;6167375;23;20431;-79
2022/04/25 08:18:07;;;;;;;4.18;2.00;;;14.40;69.10;;;;;;6168854;23;20820;-82
2022/04/25 08:20:36;;;;;;;3.13;1.60;;;14.60;70.00;;;;;;6180111;23;20705;-81
2022/04/25 08:23:09;;;;;;;1.80;1.40;;;14.90;68.90;;;;;;6180685;23;20376;-80
2022/04/25 08:25:38;;;;;;;3.60;1.70;;;15.00;67.30;;;;;;6168208;23;20868;-82
2022/04/25 08:28:05;;;;;;;3.28;1.58;;;15.20;67.80;;;;;;6180338;23;20478;-79
2022/04/25 08:30:32;;;;;;;3.20;1.90;;;15.40;66.50;;;;;;6181823;23;20372;-79
2022/04/25 08:33:01;;;;;;;2.95;1.40;;;15.40;63.60;;;;;;6180131;23;20395;-80
2022/04/25 08:35:28;;;;;;;1.92;1.73;;;15.10;64.00;;;;;;6181396;23;20388;-79
2022/04/25 08:37:55;;;;;;;3.22;1.85;;;15.00;65.00;;;;;;6178224;23;20380;-79
2022/04/25 08:40:22;;;;;;;2.65;1.83;;;15.30;64.70;;;;;;6182266;23;20402;-81
2022/04/25 08:42:49;;;;;;;4.43;1.75;;;15.60;65.10;;;;;;6179733;23;20380;-81
2022/04/25 08:45:16;;;;;;;2.50;1.65;;;15.80;64.00;;;;;;6180638;23;20368;-81
2022/04/25 08:47:59;;;;;;;2.53;1.50;;;15.90;63.20;;;;;;6179322;23;20377;-79
2022/04/25 08:50:28;;;;;;;2.47;1.48;;;15.60;62.40;;;;;;6163777;23;20382;-78
2022/04/25 08:52:56;;;;;;;4.40;1.70;;;15.50;63.60;;;;;;6172713;23;20701;-79
2022/04/25 08:55:26;;;;;;;2.80;1.50;;;15.20;64.60;;;;;;6181744;23;20438;-79
2022/04/25 08:57:55;;;;;;;2.35;1.58;;;15.10;64.60;;;;;;6183771;23;20391;-80
2022/04/25 09:00:22;;;;;;;3.45;1.40;;;15.00;65.50;;;;;;6183018;23;20372;-80
2022/04/25 09:02:49;;;;;;;3.10;1.90;;;15.20;64.80;;;;;;6182730;23;20381;-79
2022/04/25 09:05:17;;;;;;;3.40;2.10;;;15.50;64.10;;;;;;6183530;23;20376;-80
2022/04/25 09:07:44;;;;;;;2.77;1.90;;;15.90;62.30;;;;;;6183034;23;20435;-80
2022/04/25 09:10:14;;;;;;;4.82;2.40;;;16.10;62.40;;;;;;6181024;23;20403;-80
2022/04/25 09:12:46;;;;;;;3.63;1.95;;;16.40;59.90;;;;;;6183176;23;20434;-80
2022/04/25 09:15:22;;;;;;;2.63;2.30;;;16.30;60.00;;;;;;6182264;23;20853;-81
2022/04/25 09:17:56;;;;;;;7.03;4.90;;;15.90;59.10;;;;;;6182465;23;20377;-80
2022/04/25 09:20:26;;;;;;;4.75;3.30;;;15.80;61.10;;;;;;6180709;23;20357;-81
2022/04/25 09:22:53;;;;;;;4.05;2.03;;;15.90;60.60;;;;;;6182449;23;20890;-82
2022/04/25 09:25:21;;;;;;;4.57;3.30;;;15.80;61.60;;;;;;6182020;23;20376;-82
2022/04/25 09:28:11;;;;;;;7.32;3.47;;;15.80;61.50;;;;;;6182519;23;20384;-82
2022/04/25 09:30:38;;;;;;;5.03;3.37;;;16.00;60.60;;;;;;6184056;23;20376;-80
2022/04/25 09:33:21;;;;;;;4.22;2.10;;;16.10;61.30;;;;;;6181486;23;20391;-80
2022/04/25 09:35:56;;;;;;;3.17;1.92;;;16.30;60.70;;;;;;6182338;23;20384;-82
2022/04/25 09:38:32;;;;;;;2.90;1.95;;;16.20;59.90;;;;;;6182880;23;20404;-79
2022/04/25 09:40:59;;;;;;;5.82;3.72;;;16.30;59.60;;;;;;6182285;23;20895;-80
2022/04/25 09:43:57;;;;;;;5.45;3.35;;;16.60;61.10;;;;;;6183157;23;20847;-81
2022/04/25 09:46:24;;;;;;;3.53;1.88;;;16.50;57.70;;;;;;6180133;23;20437;-80
2022/04/25 09:49:03;;;;;;;2.90;1.63;;;16.60;59.10;;;;;;6183110;23;20387;-80
2022/04/25 09:51:30;;;;;;;2.25;1.50;;;16.70;59.90;;;;;;6184975;23;20368;-80
2022/04/25 09:53:57;;;;;;;3.38;1.27;;;16.60;58.40;;;;;;6183388;23;20380;-81
2022/04/25 09:56:33;;;;;;;2.35;1.65;;;16.60;56.70;;;;;;6179838;23;20388;-80
2022/04/25 09:59:09;;;;;;;1.50;1.40;;;16.70;58.80;;;;;;6182258;23;20894;-81
2022/04/25 10:01:39;;;;;;;2.77;1.47;;;16.90;57.50;;;;;;6208373;23;20480;-80
2022/04/25 10:04:26;;;;;;;1.50;1.35;;;16.80;56.40;;;;;;6182131;23;20404;-82
2022/04/25 10:06:55;;;;;;;1.77;1.25;;;16.80;58.00;;;;;;6180677;23;20368;-80
2022/04/25 10:09:26;;;;;;;2.22;1.42;;;17.20;59.00;;;;;;6181461;23;20392;-80
2022/04/25 10:11:58;;;;;;;3.80;1.60;;;17.00;56.40;;;;;;6182580;23;20380;-79
2022/04/25 10:14:26;;;;;;;2.40;1.10;;;17.00;56.60;;;;;;6182180;23;20464;-80
2022/04/25 10:16:56;;;;;;;2.35;1.10;;;17.00;56.20;;;;;;6156826;23;20368;-80
2022/04/25 10:19:24;;;;;;;1.73;1.10;;;17.10;55.90;;;;;;6183790;23;20381;-80
2022/04/25 10:21:52;;;;;;;2.08;1.17;;;16.90;55.20;;;;;;6182150;23;20837;-79
2022/04/25 10:24:20;;;;;;;3.33;1.23;;;17.00;56.60;;;;;;6182226;23;20693;-82
2022/04/25 10:26:48;;;;;;;2.65;1.00;;;17.10;55.30;;;;;;6180682;23;20380;-80
2022/04/25 10:29:37;;;;;;;1.77;1.08;;;17.40;57.30;;;;;;6184262;23;20411;-80
2022/04/25 10:32:08;;;;;;;2.72;1.20;;;17.90;54.80;;;;;;6182702;23;20372;-79
2022/04/25 10:34:59;;;;;;;1.88;1.27;;;18.10;55.30;;;;;;6184293;23;20388;-80
2022/04/25 10:37:36;;;;;;;1.50;1.00;;;18.50;56.00;;;;;;6206772;23;20375;-80
2022/04/25 10:40:06;;;;;;;5.15;1.40;;;19.00;55.20;;;;;;6177123;23;20435;-81
2022/04/25 10:45:59;;;;;;;2.35;1.40;;;19.20;51.00;;;;;;6184680;23;20365;-83
2022/04/25 10:48:27;;;;;;;2.72;1.40;;;18.90;52.70;;;;;;6182343;23;20372;-80
2022/04/25 10:51:16;;;;;;;2.05;1.23;;;18.80;53.00;;;;;;6181909;23;20368;-80
2022/04/25 10:54:02;;;;;;;7.13;2.22;;;18.70;52.60;;;;;;6180816;23;20431;-80
2022/04/25 10:56:30;;;;;;;2.70;1.50;;;18.50;52.90;;;;;;6181605;23;20392;-82
2022/04/25 10:59:27;;;;;;;3.28;1.55;;;18.50;53.70;;;;;;6181703;23;20706;-80
2022/04/25 11:01:58;;;;;;;3.42;1.88;;;18.10;56.10;;;;;;6182146;23;20437;-81
2022/04/25 11:04:26;;;;;;;2.13;1.60;;;18.00;56.50;;;;;;6183139;23;20380;-81
2022/04/25 11:07:19;;;;;;;2.77;1.90;;;18.00;57.10;;;;;;6182981;23;20360;-80
2022/04/25 11:09:46;;;;;;;3.22;1.80;;;17.30;58.60;;;;;;6181142;23;20372;-80
2022/04/25 11:12:13;;;;;;;2.72;1.60;;;17.30;60.50;;;;;;6182646;23;20376;-79
2022/04/25 11:15:02;;;;;;;2.00;1.45;;;17.30;59.00;;;;;;6181416;23;20501;-80
2022/04/25 11:17:30;;;;;;;2.85;1.40;;;17.40;57.90;;;;;;6182647;23;20376;-81
2022/04/25 11:19:57;;;;;;;1.83;1.23;;;17.50;58.90;;;;;;6182461;23;20364;-80
2022/04/25 11:22:29;;;;;;;3.10;1.70;;;17.70;57.70;;;;;;6183198;23;20383;-79
2022/04/25 11:24:56;;;;;;;5.17;1.63;;;17.80;57.10;;;;;;6182210;23;20376;-81
2022/04/25 11:27:22;;;;;;;2.93;1.77;;;17.80;58.10;;;;;;6182201;23;20380;-82
2022/04/25 11:30:16;;;;;;;4.05;2.00;;;17.60;57.50;;;;;;6181199;23;20373;-79
2022/04/25 11:32:44;;;;;;;3.20;1.92;;;17.60;57.40;;;;;;6181252;23;20376;-81
2022/04/25 11:35:11;;;;;;;2.67;1.35;;;17.70;58.60;;;;;;6181061;23;20384;-82
2022/04/25 11:37:38;;;;;;;4.05;1.50;;;17.70;57.90;;;;;;6181195;23;20384;-80
2022/04/25 11:40:07;;;;;;;2.53;1.20;;;17.70;56.50;;;;;;6182385;23;20380;-81
2022/04/25 11:42:35;;;;;;;2.30;1.33;;;17.70;56.90;;;;;;6181058;23;20376;-81
2022/04/25 11:45:05;;;;;;;4.55;1.80;;;17.70;56.90;;;;;;6181658;23;20372;-79
2022/04/25 11:47:32;;;;;;;2.13;1.40;;;17.60;57.00;;;;;;6182264;23;20430;-80
2022/04/25 11:50:05;;;;;;;2.90;1.60;;;17.60;57.10;;;;;;6181742;23;20454;-80
2022/04/25 11:52:43;;;;;;;2.20;1.10;;;17.70;56.80;;;;;;6183225;23;20403;-80
2022/04/25 11:55:11;;;;;;;2.47;1.23;;;17.60;57.00;;;;;;6137357;23;20404;-80
2022/04/25 11:57:40;;;;;;;3.20;1.13;;;17.50;58.40;;;;;;6178834;23;20381;-80
2022/04/25 12:00:14;;;;;;;2.10;1.20;;;17.60;56.80;;;;;;6181902;23;20368;-81
2022/04/25 12:02:41;;;;;;;1.73;1.20;;;17.50;56.70;;;;;;6180230;23;20407;-80
2022/04/25 12:05:10;;;;;;;4.57;1.43;;;17.60;58.60;;;;;;6181473;23;20367;-80
2022/04/25 12:15:34;;;;;;;6.47;1.20;;;17.80;57.20;;;;;;6182573;23;20447;-81
2022/04/25 12:16:00;;;;;;;2.30;1.23;;;18.10;54.70;;;;;;6181741;23;20860;-80
2022/04/25 12:18:30;;;;;;;3.63;1.20;;;18.30;56.80;;;;;;6181577;23;20412;-79
2022/04/25 12:21:12;;;;;;;2.45;1.30;;;18.40;55.00;;;;;;6181482;23;20376;-80
2022/04/25 12:23:45;;;;;;;1.60;1.10;;;18.50;54.30;;;;;;6181265;23;20447;-81
2022/04/25 12:26:24;;;;;;;3.20;1.00;;;18.60;54.00;;;;;;6182018;23;20364;-80
2022/04/25 12:28:59;;;;;;;2.38;1.15;;;18.50;53.80;;;;;;6182773;23;20380;-80
2022/04/25 12:31:28;;;;;;;3.00;1.15;;;18.40;54.70;;;;;;6182254;23;20864;-80
2022/04/25 12:33:55;;;;;;;3.77;1.40;;;18.50;58.10;;;;;;6184052;23;20371;-80
2022/04/25 12:36:25;;;;;;;2.63;1.10;;;18.60;55.40;;;;;;6182959;23;20380;-82
2022/04/25 12:39:02;;;;;;;2.97;1.00;;;18.50;53.20;;;;;;6182821;23;20383;-81
2022/04/25 12:41:38;;;;;;;3.13;0.90;;;18.90;54.60;;;;;;6184391;23;20387;-85
2022/04/25 12:44:11;;;;;;;2.47;0.87;;;19.40;53.80;;;;;;6183903;23;20376;-79
2022/04/25 12:46:47;;;;;;;2.50;1.20;;;20.00;53.30;;;;;;6185095;23;20380;-81
2022/04/25 12:49:20;;;;;;;2.50;1.05;;;20.10;52.60;;;;;;6182676;23;20365;-79
2022/04/25 12:51:57;;;;;;;2.17;0.93;;;20.30;50.60;;;;;;6184685;23;20427;-80
2022/04/25 12:54:32;;;;;;;1.88;0.75;;;20.70;50.40;;;;;;6181819;23;20384;-79
2022/04/25 12:57:28;;;;;;;1.05;0.73;;;21.10;49.90;;;;;;6184329;23;20506;-81
2022/04/25 12:59:55;;;;;;;1.20;0.80;;;21.20;48.80;;;;;;6180876;23;20922;-81
2022/04/25 13:02:35;;;;;;;1.80;1.00;;;20.70;47.80;;;;;;6182290;23;20391;-80
2022/04/25 13:05:06;;;;;;;1.50;0.80;;;20.50;51.30;;;;;;6184008;23;20431;-82
2022/04/25 13:07:39;;;;;;;2.63;0.87;;;20.40;49.20;;;;;;6183295;23;20918;-82
2022/04/25 13:10:13;;;;;;;1.40;0.90;;;20.10;49.70;;;;;;6181461;23;20387;-80
2022/04/25 13:12:49;;;;;;;1.93;0.83;;;19.60;49.10;;;;;;6183785;23;20875;-80
2022/04/25 13:15:18;;;;;;;2.13;0.80;;;19.60;51.20;;;;;;6183454;23;20458;-80
2022/04/25 13:17:46;;;;;;;2.08;0.98;;;19.80;51.60;;;;;;6184831;23;20368;-80
2022/04/25 13:20:17;;;;;;;1.45;0.70;;;19.70;50.50;;;;;;6182471;23;20372;-80
2022/04/25 13:22:44;;;;;;;1.60;0.80;;;19.70;50.80;;;;;;6184719;23;20368;-82
2022/04/25 13:25:14;;;;;;;2.72;1.00;;;19.20;50.00;;;;;;6183786;23;20705;-82
2022/04/25 13:27:41;;;;;;;2.22;0.75;;;19.10;53.60;;;;;;6182734;23;20372;-81
2022/04/25 13:30:12;;;;;;;2.25;0.90;;;19.20;51.80;;;;;;6183336;23;20692;-80
2022/04/25 13:32:43;;;;;;;1.80;0.70;;;19.20;50.30;;;;;;6185187;23;20463;-80
2022/04/25 13:35:11;;;;;;;1.77;0.90;;;19.40;51.30;;;;;;6183448;23;20455;-81
2022/04/25 13:37:38;;;;;;;1.27;0.60;;;19.30;50.80;;;;;;6183662;23;20452;-81